createdAt,value
2018-07-04T00:00:56.762Z,0.00
2018-07-04T00:01:56.767Z,0.00
2018-07-04T00:02:56.761Z,0.00
2018-07-04T00:03:56.795Z,0.00
2018-07-04T00:04:56.769Z,0.00
2018-07-04T00:05:56.769Z,0.00
2018-07-04T00:06:56.763Z,0.00
2018-07-04T00:07:56.766Z,0.00
2018-07-04T00:08:56.766Z,0.00
2018-07-04T00:09:56.792Z,0.00
2018-07-04T00:10:56.772Z,0.00
2018-07-04T00:11:56.784Z,0.00
2018-07-04T00:12:56.774Z,0.00
2018-07-04T00:13:56.772Z,0.00
2018-07-04T00:14:56.778Z,0.00
2018-07-04T00:15:56.774Z,0.00
2018-07-04T00:16:56.781Z,0.00
2018-07-04T00:17:56.771Z,0.00
2018-07-04T00:18:56.783Z,0.00
2018-07-04T00:19:56.781Z,0.00
2018-07-04T00:20:56.774Z,0.00
2018-07-04T00:21:56.775Z,0.00
2018-07-04T00:22:56.781Z,0.00
2018-07-04T00:23:56.777Z,0.00
2018-07-04T00:24:56.797Z,0.00
2018-07-04T00:25:56.782Z,0.00
2018-07-04T00:26:56.790Z,0.00
2018-07-04T00:27:56.782Z,0.00
2018-07-04T00:28:56.779Z,0.00
2018-07-04T00:29:56.783Z,0.00
2018-07-04T00:30:56.780Z,0.00
2018-07-04T00:31:56.789Z,0.00
2018-07-04T00:32:56.785Z,0.00
2018-07-04T00:33:56.783Z,0.00
2018-07-04T00:34:56.782Z,0.00
2018-07-04T00:35:56.785Z,0.00
2018-07-04T00:36:56.785Z,0.00
2018-07-04T00:37:56.783Z,0.00
2018-07-04T00:38:56.783Z,0.00
2018-07-04T00:39:56.789Z,0.00
2018-07-04T00:40:56.792Z,0.00
2018-07-04T00:41:56.807Z,0.00
2018-07-04T00:42:56.790Z,0.00
2018-07-04T00:43:56.795Z,0.00
2018-07-04T00:44:56.801Z,0.00
2018-07-04T00:45:56.791Z,0.00
2018-07-04T00:46:56.789Z,0.00
2018-07-04T00:47:56.789Z,0.00
2018-07-04T00:48:56.813Z,0.00
2018-07-04T00:49:56.794Z,0.00
2018-07-04T00:50:56.792Z,0.00
2018-07-04T00:51:56.794Z,0.00
2018-07-04T00:52:56.794Z,0.00
2018-07-04T00:53:56.792Z,0.00
2018-07-04T00:54:56.791Z,0.00
2018-07-04T00:55:56.794Z,0.00
2018-07-04T00:56:56.792Z,0.00
2018-07-04T00:57:56.794Z,0.00
2018-07-04T00:58:56.793Z,0.00
2018-07-04T00:59:56.792Z,0.00
2018-07-04T01:00:56.798Z,0.00
2018-07-04T01:01:56.828Z,0.00
2018-07-04T01:02:56.795Z,0.00
2018-07-04T01:03:56.797Z,0.00
2018-07-04T01:04:56.798Z,0.00
2018-07-04T01:05:56.805Z,0.00
2018-07-04T01:06:56.798Z,0.00
2018-07-04T01:07:56.799Z,0.00
2018-07-04T01:08:56.797Z,0.00
2018-07-04T01:09:56.798Z,0.00
2018-07-04T01:10:56.816Z,0.00
2018-07-04T01:11:56.804Z,0.00
2018-07-04T01:12:56.801Z,0.00
2018-07-04T01:13:56.802Z,0.00
2018-07-04T01:14:56.801Z,0.00
2018-07-04T01:15:56.803Z,0.00
2018-07-04T01:16:56.808Z,0.00
2018-07-04T01:17:56.807Z,0.00
2018-07-04T01:18:56.801Z,0.00
2018-07-04T01:19:56.810Z,0.00
2018-07-04T01:20:56.807Z,0.00
2018-07-04T01:21:56.805Z,0.00
2018-07-04T01:22:56.805Z,0.00
2018-07-04T01:23:56.807Z,0.00
2018-07-04T01:24:56.805Z,0.00
2018-07-04T01:25:56.808Z,0.00
2018-07-04T01:26:56.810Z,0.00
2018-07-04T01:27:56.805Z,0.00
2018-07-04T01:28:56.813Z,0.00
2018-07-04T01:29:56.813Z,0.00
2018-07-04T01:30:56.812Z,0.00
2018-07-04T01:31:56.807Z,0.00
2018-07-04T01:32:56.808Z,0.00
2018-07-04T01:33:56.807Z,0.00
2018-07-04T01:34:56.809Z,0.00
2018-07-04T01:35:56.809Z,0.00
2018-07-04T01:36:56.820Z,0.00
2018-07-04T01:37:56.809Z,0.00
2018-07-04T01:38:56.835Z,0.00
2018-07-04T01:39:56.813Z,0.00
2018-07-04T01:40:56.809Z,0.00
2018-07-04T01:41:56.812Z,0.00
2018-07-04T01:42:56.811Z,0.00
2018-07-04T01:43:56.812Z,0.00
2018-07-04T01:44:56.810Z,0.00
2018-07-04T01:45:56.812Z,0.00
2018-07-04T01:46:56.814Z,0.00
2018-07-04T01:47:56.812Z,0.00
2018-07-04T01:48:56.841Z,0.00
2018-07-04T01:49:56.814Z,0.00
2018-07-04T01:50:56.813Z,0.00
2018-07-04T01:51:56.841Z,0.00
2018-07-04T01:52:56.824Z,0.00
2018-07-04T01:53:56.815Z,0.00
2018-07-04T01:54:56.815Z,0.00
2018-07-04T01:55:56.817Z,0.00
2018-07-04T01:56:56.814Z,0.00
2018-07-04T01:57:56.817Z,0.00
2018-07-04T01:58:56.838Z,0.00
2018-07-04T01:59:56.818Z,0.00
2018-07-04T02:00:56.817Z,0.00
2018-07-04T02:01:56.839Z,0.00
2018-07-04T02:02:56.818Z,0.00
2018-07-04T02:03:56.822Z,0.00
2018-07-04T02:04:56.818Z,0.00
2018-07-04T02:05:56.818Z,0.00
2018-07-04T02:06:56.822Z,0.00
2018-07-04T02:07:56.820Z,0.00
2018-07-04T02:08:56.822Z,0.00
2018-07-04T02:09:56.822Z,0.00
2018-07-04T02:10:56.820Z,0.00
2018-07-04T02:11:56.839Z,0.00
2018-07-04T02:12:56.831Z,0.00
2018-07-04T02:13:56.822Z,0.00
2018-07-04T02:14:56.837Z,0.00
2018-07-04T02:15:56.826Z,0.00
2018-07-04T02:16:56.824Z,0.00
2018-07-04T02:17:56.853Z,0.00
2018-07-04T02:18:56.825Z,0.00
2018-07-04T02:19:56.855Z,0.00
2018-07-04T02:20:56.824Z,0.00
2018-07-04T02:21:56.832Z,0.00
2018-07-04T02:22:56.823Z,0.00
2018-07-04T02:23:56.848Z,0.00
2018-07-04T02:24:56.826Z,0.00
2018-07-04T02:25:56.827Z,0.00
2018-07-04T02:26:56.823Z,0.00
2018-07-04T02:27:56.826Z,0.00
2018-07-04T02:28:56.840Z,0.00
2018-07-04T02:29:56.827Z,0.00
2018-07-04T02:30:56.825Z,0.00
2018-07-04T02:31:56.826Z,0.00
2018-07-04T02:32:56.825Z,0.00
2018-07-04T02:33:56.829Z,0.00
2018-07-04T02:34:56.850Z,0.00
2018-07-04T02:35:56.828Z,0.00
2018-07-04T02:36:56.837Z,0.00
2018-07-04T02:37:56.830Z,4.00
2018-07-04T02:38:56.831Z,4.00
2018-07-04T02:39:56.830Z,0.00
2018-07-04T02:40:56.833Z,0.00
2018-07-04T02:41:56.829Z,4.00
2018-07-04T02:42:56.827Z,4.00
2018-07-04T02:43:56.828Z,0.00
2018-07-04T02:44:56.897Z,4.00
2018-07-04T02:45:56.834Z,0.00
2018-07-04T02:46:56.833Z,4.00
2018-07-04T02:47:56.833Z,4.00
2018-07-04T02:48:56.838Z,4.00
2018-07-04T02:49:56.855Z,4.00
2018-07-04T02:50:56.864Z,8.00
2018-07-04T02:51:56.838Z,8.00
2018-07-04T02:52:56.838Z,8.00
2018-07-04T02:53:56.831Z,12.00
2018-07-04T02:54:56.839Z,8.00
2018-07-04T02:55:56.832Z,12.00
2018-07-04T02:56:56.832Z,12.00
2018-07-04T02:57:56.830Z,16.00
2018-07-04T02:58:56.840Z,16.00
2018-07-04T02:59:56.828Z,16.00
2018-07-04T03:00:56.838Z,20.00
2018-07-04T03:01:56.834Z,20.00
2018-07-04T03:02:56.851Z,24.00
2018-07-04T03:03:56.835Z,24.00
2018-07-04T03:04:56.837Z,32.00
2018-07-04T03:05:56.906Z,32.00
2018-07-04T03:06:56.841Z,36.00
2018-07-04T03:07:56.829Z,36.00
2018-07-04T03:08:56.832Z,44.00
2018-07-04T03:09:56.836Z,48.00
2018-07-04T03:10:56.833Z,48.00
2018-07-04T03:11:56.833Z,52.00
2018-07-04T03:12:56.835Z,56.00
2018-07-04T03:13:56.867Z,60.00
2018-07-04T03:14:56.836Z,64.00
2018-07-04T03:15:56.846Z,68.00
2018-07-04T03:16:56.832Z,72.00
2018-07-04T03:17:56.844Z,80.00
2018-07-04T03:18:56.838Z,84.00
2018-07-04T03:19:56.835Z,88.00
2018-07-04T03:20:56.833Z,96.00
2018-07-04T03:21:56.842Z,100.00
2018-07-04T03:22:56.834Z,108.00
2018-07-04T03:23:56.833Z,112.00
2018-07-04T03:24:56.852Z,120.00
2018-07-04T03:25:56.835Z,128.00
2018-07-04T03:26:56.838Z,132.00
2018-07-04T03:27:56.833Z,136.00
2018-07-04T03:28:56.855Z,144.00
2018-07-04T03:29:56.837Z,152.00
2018-07-04T03:30:56.841Z,156.00
2018-07-04T03:31:56.832Z,168.00
2018-07-04T03:32:56.861Z,176.00
2018-07-04T03:33:56.837Z,180.00
2018-07-04T03:34:56.843Z,188.00
2018-07-04T03:35:56.834Z,192.00
2018-07-04T03:36:58.520Z,204.00
2018-07-04T03:37:56.835Z,208.00
2018-07-04T03:38:56.837Z,220.00
2018-07-04T03:39:56.845Z,228.00
2018-07-04T03:40:56.832Z,236.00
2018-07-04T03:41:56.834Z,244.00
2018-07-04T03:42:56.832Z,248.00
2018-07-04T03:43:56.835Z,260.00
2018-07-04T03:44:56.858Z,272.00
2018-07-04T03:45:56.835Z,280.00
2018-07-04T03:46:56.835Z,296.00
2018-07-04T03:47:56.837Z,316.00
2018-07-04T03:48:56.835Z,336.00
2018-07-04T03:49:56.855Z,348.00
2018-07-04T03:50:56.838Z,364.00
2018-07-04T03:51:56.841Z,376.00
2018-07-04T03:52:56.837Z,392.00
2018-07-04T03:53:56.836Z,408.00
2018-07-04T03:54:56.841Z,420.00
2018-07-04T03:55:56.843Z,432.00
2018-07-04T03:56:56.838Z,448.00
2018-07-04T03:57:56.838Z,456.00
2018-07-04T03:58:56.838Z,464.00
2018-07-04T03:59:56.839Z,476.00
2018-07-04T04:00:56.837Z,488.00
2018-07-04T04:01:56.840Z,500.00
2018-07-04T04:02:56.838Z,512.00
2018-07-04T04:03:56.841Z,528.00
2018-07-04T04:04:56.842Z,544.00
2018-07-04T04:05:56.870Z,560.00
2018-07-04T04:06:56.838Z,580.00
2018-07-04T04:07:56.921Z,596.00
2018-07-04T04:08:56.841Z,612.00
2018-07-04T04:09:56.843Z,632.00
2018-07-04T04:10:56.841Z,652.00
2018-07-04T04:11:56.845Z,668.00
2018-07-04T04:12:56.843Z,684.00
2018-07-04T04:13:56.845Z,700.00
2018-07-04T04:14:56.841Z,712.00
2018-07-04T04:15:56.848Z,728.00
2018-07-04T04:16:56.851Z,732.00
2018-07-04T04:17:56.844Z,740.00
2018-07-04T04:18:56.847Z,756.00
2018-07-04T04:19:56.937Z,764.00
2018-07-04T04:20:56.857Z,768.00
2018-07-04T04:21:56.851Z,772.00
2018-07-04T04:22:56.855Z,772.00
2018-07-04T04:23:56.852Z,768.00
2018-07-04T04:24:56.851Z,768.00
2018-07-04T04:25:56.878Z,764.00
2018-07-04T04:26:56.855Z,768.00
2018-07-04T04:27:56.853Z,760.00
2018-07-04T04:28:56.853Z,764.00
2018-07-04T04:29:56.869Z,760.00
2018-07-04T04:30:56.865Z,756.00
2018-07-04T04:31:56.872Z,752.00
2018-07-04T04:32:56.857Z,748.00
2018-07-04T04:33:56.918Z,748.00
2018-07-04T04:34:56.860Z,748.00
2018-07-04T04:35:56.882Z,740.00
2018-07-04T04:36:56.863Z,748.00
2018-07-04T04:37:56.870Z,756.00
2018-07-04T04:38:56.876Z,760.00
2018-07-04T04:39:56.864Z,760.00
2018-07-04T04:40:56.866Z,764.00
2018-07-04T04:41:56.866Z,760.00
2018-07-04T04:42:56.867Z,756.00
2018-07-04T04:43:56.876Z,752.00
2018-07-04T04:44:56.876Z,752.00
2018-07-04T04:45:56.874Z,740.00
2018-07-04T04:46:56.885Z,728.00
2018-07-04T04:47:56.878Z,728.00
2018-07-04T04:48:56.893Z,724.00
2018-07-04T04:49:56.878Z,720.00
2018-07-04T04:50:56.895Z,724.00
2018-07-04T04:51:56.881Z,728.00
2018-07-04T04:52:56.887Z,724.00
2018-07-04T04:53:56.886Z,724.00
2018-07-04T04:54:56.883Z,720.00
2018-07-04T04:55:56.895Z,724.00
2018-07-04T04:56:56.887Z,728.00
2018-07-04T04:57:56.894Z,732.00
2018-07-04T04:58:56.891Z,728.00
2018-07-04T04:59:56.896Z,728.00
2018-07-04T05:00:56.893Z,728.00
2018-07-04T05:01:56.897Z,732.00
2018-07-04T05:02:56.900Z,740.00
2018-07-04T05:03:56.907Z,748.00
2018-07-04T05:04:56.917Z,764.00
2018-07-04T05:05:56.908Z,780.00
2018-07-04T05:06:56.906Z,796.00
2018-07-04T05:07:56.940Z,820.00
2018-07-04T05:08:56.907Z,864.00
2018-07-04T05:09:56.906Z,912.00
2018-07-04T05:10:56.951Z,960.00
2018-07-04T05:11:56.924Z,984.00
2018-07-04T05:12:56.913Z,1000.00
2018-07-04T05:13:56.918Z,1032.00
2018-07-04T05:14:56.953Z,1060.00
2018-07-04T05:15:56.938Z,1088.00
2018-07-04T05:16:56.921Z,1116.00
2018-07-04T05:17:56.924Z,1136.00
2018-07-04T05:18:56.938Z,1168.00
2018-07-04T05:19:56.957Z,1204.00
2018-07-04T05:20:56.977Z,1240.00
2018-07-04T05:21:56.936Z,1276.00
2018-07-04T05:22:56.941Z,1312.00
2018-07-04T05:23:56.938Z,1352.00
2018-07-04T05:24:56.939Z,1388.00
2018-07-04T05:25:56.948Z,1428.00
2018-07-04T05:26:56.947Z,1468.00
2018-07-04T05:27:56.944Z,1508.00
2018-07-04T05:28:56.952Z,1548.00
2018-07-04T05:29:56.953Z,1580.00
2018-07-04T05:30:56.951Z,1612.00
2018-07-04T05:31:56.982Z,1640.00
2018-07-04T05:32:56.956Z,1668.00
2018-07-04T05:33:56.962Z,1692.00
2018-07-04T05:34:56.963Z,1728.00
2018-07-04T05:35:56.963Z,1760.00
2018-07-04T05:36:56.970Z,1804.00
2018-07-04T05:37:56.996Z,1836.00
2018-07-04T05:38:56.979Z,1864.00
2018-07-04T05:39:56.977Z,1900.00
2018-07-04T05:40:57.045Z,1920.00
2018-07-04T05:41:56.983Z,1924.00
2018-07-04T05:42:56.982Z,1928.00
2018-07-04T05:43:56.989Z,1928.00
2018-07-04T05:44:56.993Z,1944.00
2018-07-04T05:45:57.004Z,1960.00
2018-07-04T05:46:56.996Z,1964.00
2018-07-04T05:47:57.001Z,1984.00
2018-07-04T05:48:57.005Z,2000.00
2018-07-04T05:49:57.012Z,2008.00
2018-07-04T05:50:57.013Z,2028.00
2018-07-04T05:51:57.028Z,2044.00
2018-07-04T05:52:57.047Z,2064.00
2018-07-04T05:53:57.024Z,2084.00
2018-07-04T05:54:57.053Z,2108.00
2018-07-04T05:55:57.033Z,2124.00
2018-07-04T05:56:57.041Z,2152.00
2018-07-04T05:57:57.043Z,2172.00
2018-07-04T05:58:57.044Z,2200.00
2018-07-04T05:59:57.049Z,2216.00
2018-07-04T06:00:57.072Z,1944.00
2018-07-04T06:01:57.058Z,2280.00
2018-07-04T06:02:57.059Z,2300.00
2018-07-04T06:03:57.065Z,2308.00
2018-07-04T06:04:57.078Z,1868.00
2018-07-04T06:05:57.073Z,1916.00
2018-07-04T06:06:57.095Z,1912.00
2018-07-04T06:07:57.103Z,2032.00
2018-07-04T06:08:57.095Z,2148.00
2018-07-04T06:09:57.089Z,2268.00
2018-07-04T06:10:57.095Z,2324.00
2018-07-04T06:11:57.099Z,2396.00
2018-07-04T06:12:57.107Z,2424.00
2018-07-04T06:13:57.108Z,2424.00
2018-07-04T06:14:57.169Z,2424.00
2018-07-04T06:15:57.118Z,2428.00
2018-07-04T06:16:57.172Z,2428.00
2018-07-04T06:17:57.128Z,2428.00
2018-07-04T06:18:57.135Z,2436.00
2018-07-04T06:19:57.147Z,2440.00
2018-07-04T06:20:57.142Z,2448.00
2018-07-04T06:21:57.145Z,2460.00
2018-07-04T06:22:57.151Z,2472.00
2018-07-04T06:23:57.163Z,2488.00
2018-07-04T06:24:57.166Z,2544.00
2018-07-04T06:25:57.172Z,2868.00
2018-07-04T06:26:57.170Z,3580.00
2018-07-04T06:27:57.181Z,4156.00
2018-07-04T06:28:57.186Z,4356.00
2018-07-04T06:29:57.221Z,4400.00
2018-07-04T06:30:57.206Z,4420.00
2018-07-04T06:31:57.213Z,4460.00
2018-07-04T06:32:57.212Z,4444.00
2018-07-04T06:33:57.220Z,4420.00
2018-07-04T06:34:57.216Z,4372.00
2018-07-04T06:35:57.230Z,4300.00
2018-07-04T06:36:57.231Z,4156.00
2018-07-04T06:37:57.236Z,4328.00
2018-07-04T06:38:57.239Z,4316.00
2018-07-04T06:39:57.248Z,4300.00
2018-07-04T06:40:57.258Z,4308.00
2018-07-04T06:41:57.261Z,4264.00
2018-07-04T06:42:57.265Z,4316.00
2018-07-04T06:43:57.293Z,4428.00
2018-07-04T06:44:57.280Z,4468.00
2018-07-04T06:45:57.288Z,4472.00
2018-07-04T06:46:57.318Z,4500.00
2018-07-04T06:47:57.310Z,4496.00
2018-07-04T06:48:57.359Z,4508.00
2018-07-04T06:49:57.322Z,4520.00
2018-07-04T06:50:57.326Z,4520.00
2018-07-04T06:51:57.332Z,4520.00
2018-07-04T06:52:57.342Z,4528.00
2018-07-04T06:53:57.357Z,4536.00
2018-07-04T06:54:57.360Z,4552.00
2018-07-04T06:55:57.365Z,4556.00
2018-07-04T06:56:57.374Z,4568.00
2018-07-04T06:57:57.383Z,4572.00
2018-07-04T06:58:57.393Z,4540.00
2018-07-04T06:59:57.400Z,4512.00
2018-07-04T07:00:57.409Z,4480.00
2018-07-04T07:01:57.488Z,4520.00
2018-07-04T07:02:57.425Z,4584.00
2018-07-04T07:03:57.447Z,4676.00
2018-07-04T07:04:57.448Z,4732.00
2018-07-04T07:05:57.456Z,4768.00
2018-07-04T07:06:57.465Z,4792.00
2018-07-04T07:07:57.478Z,4816.00
2018-07-04T07:08:57.488Z,4844.00
2018-07-04T07:09:57.500Z,4904.00
2018-07-04T07:10:57.508Z,4960.00
2018-07-04T07:11:57.565Z,5024.00
2018-07-04T07:12:57.527Z,5128.00
2018-07-04T07:13:57.540Z,5220.00
2018-07-04T07:14:57.552Z,5288.00
2018-07-04T07:15:57.562Z,5396.00
2018-07-04T07:16:57.570Z,5516.00
2018-07-04T07:17:57.587Z,5672.00
2018-07-04T07:18:57.596Z,5796.00
2018-07-04T07:19:57.602Z,5916.00
2018-07-04T07:20:57.615Z,6028.00
2018-07-04T07:21:57.625Z,6076.00
2018-07-04T07:22:57.642Z,6124.00
2018-07-04T07:23:57.651Z,6168.00
2018-07-04T07:24:57.664Z,6216.00
2018-07-04T07:25:57.678Z,6312.00
2018-07-04T07:26:57.685Z,6392.00
2018-07-04T07:27:57.697Z,6412.00
2018-07-04T07:28:57.712Z,6432.00
2018-07-04T07:29:57.723Z,6492.00
2018-07-04T07:30:57.731Z,6596.00
2018-07-04T07:31:57.741Z,6672.00
2018-07-04T07:32:57.791Z,6712.00
2018-07-04T07:33:57.889Z,6780.00
2018-07-04T07:34:57.779Z,6800.00
2018-07-04T07:35:57.784Z,6800.00
2018-07-04T07:36:57.801Z,6816.00
2018-07-04T07:37:57.848Z,6864.00
2018-07-04T07:38:57.821Z,6848.00
2018-07-04T07:39:57.833Z,6788.00
2018-07-04T07:40:57.845Z,6868.00
2018-07-04T07:41:57.926Z,6904.00
2018-07-04T07:42:57.871Z,6852.00
2018-07-04T07:43:57.884Z,6940.00
2018-07-04T07:44:57.950Z,6812.00
2018-07-04T07:45:57.943Z,6844.00
2018-07-04T07:46:57.925Z,6980.00
2018-07-04T07:47:57.936Z,6752.00
2018-07-04T07:48:57.947Z,6700.00
2018-07-04T07:49:57.964Z,6580.00
2018-07-04T07:50:57.974Z,6540.00
2018-07-04T07:51:58.074Z,5964.00
2018-07-04T07:52:57.998Z,5104.00
2018-07-04T07:53:58.034Z,4900.00
2018-07-04T07:55:00.602Z,5656.00
2018-07-04T07:55:58.035Z,6444.00
2018-07-04T07:56:58.095Z,6636.00
2018-07-04T07:57:58.087Z,6972.00
2018-07-04T07:58:58.075Z,7212.00
2018-07-04T07:59:58.090Z,7476.00
2018-07-04T08:00:58.130Z,7776.00
2018-07-04T08:01:58.195Z,7556.00
2018-07-04T08:02:58.128Z,7468.00
2018-07-04T08:03:58.163Z,7680.00
2018-07-04T08:04:58.329Z,8004.00
2018-07-04T08:05:58.218Z,7884.00
2018-07-04T08:06:58.179Z,7900.00
2018-07-04T08:07:58.187Z,7812.00
2018-07-04T08:08:58.202Z,7864.00
2018-07-04T08:09:58.218Z,7892.00
2018-07-04T08:10:58.234Z,8324.00
2018-07-04T08:11:58.246Z,8572.00
2018-07-04T08:12:58.255Z,8692.00
2018-07-04T08:13:58.305Z,8680.00
2018-07-04T08:14:58.305Z,8828.00
2018-07-04T08:15:58.306Z,8864.00
2018-07-04T08:16:58.310Z,8888.00
2018-07-04T08:17:58.335Z,8900.00
2018-07-04T08:18:58.350Z,8916.00
2018-07-04T08:19:58.391Z,8932.00
2018-07-04T08:20:58.397Z,8864.00
2018-07-04T08:21:58.380Z,8816.00
2018-07-04T08:22:58.421Z,8860.00
2018-07-04T08:23:58.408Z,8840.00
2018-07-04T08:24:58.427Z,8716.00
2018-07-04T08:25:58.436Z,8720.00
2018-07-04T08:26:58.482Z,8748.00
2018-07-04T08:27:58.466Z,8740.00
2018-07-04T08:28:58.502Z,8768.00
2018-07-04T08:29:58.495Z,8748.00
2018-07-04T08:30:58.507Z,8768.00
2018-07-04T08:31:58.558Z,8796.00
2018-07-04T08:32:58.540Z,8716.00
2018-07-04T08:33:58.556Z,8768.00
2018-07-04T08:34:58.636Z,8448.00
2018-07-04T08:35:58.614Z,8520.00
2018-07-04T08:36:58.615Z,8428.00
2018-07-04T08:37:58.614Z,8668.00
2018-07-04T08:38:58.698Z,8296.00
2018-07-04T08:39:58.642Z,8740.00
2018-07-04T08:40:58.657Z,9036.00
2018-07-04T08:41:58.679Z,9208.00
2018-07-04T08:42:58.714Z,8804.00
2018-07-04T08:43:58.700Z,9420.00
2018-07-04T08:44:58.715Z,9412.00
2018-07-04T08:45:58.734Z,9236.00
2018-07-04T08:46:58.764Z,9312.00
2018-07-04T08:47:58.757Z,9576.00
2018-07-04T08:48:58.772Z,9804.00
2018-07-04T08:49:58.787Z,9912.00
2018-07-04T08:50:58.815Z,10080.00
2018-07-04T08:51:58.812Z,10068.00
2018-07-04T08:52:58.881Z,10416.00
2018-07-04T08:53:58.845Z,10348.00
2018-07-04T08:54:58.890Z,9976.00
2018-07-04T08:55:58.881Z,10052.00
2018-07-04T08:56:58.890Z,10016.00
2018-07-04T08:57:58.906Z,9968.00
2018-07-04T08:58:58.917Z,9888.00
2018-07-04T08:59:58.930Z,9644.00
2018-07-04T09:00:58.952Z,9548.00
2018-07-04T09:01:58.975Z,9404.00
2018-07-04T09:02:59.025Z,9192.00
2018-07-04T09:03:59.007Z,8892.00
2018-07-04T09:04:59.006Z,8764.00
2018-07-04T09:05:59.088Z,8580.00
2018-07-04T09:06:59.031Z,8332.00
2018-07-04T09:07:59.046Z,7856.00
2018-07-04T09:08:59.058Z,7368.00
2018-07-04T09:09:59.073Z,6684.00
2018-07-04T09:10:59.089Z,6264.00
2018-07-04T09:11:59.103Z,6008.00
2018-07-04T09:12:59.107Z,5688.00
2018-07-04T09:13:59.128Z,5464.00
2018-07-04T09:14:59.138Z,5192.00
2018-07-04T09:15:59.152Z,4920.00
2018-07-04T09:16:59.168Z,4676.00
2018-07-04T09:17:59.176Z,4568.00
2018-07-04T09:18:59.197Z,4492.00
2018-07-04T09:19:59.205Z,4420.00
2018-07-04T09:20:59.215Z,4188.00
2018-07-04T09:21:59.232Z,3988.00
2018-07-04T09:22:59.245Z,4012.00
2018-07-04T09:23:59.254Z,3852.00
2018-07-04T09:24:59.261Z,3972.00
2018-07-04T09:25:59.278Z,4164.00
2018-07-04T09:26:59.307Z,4280.00
2018-07-04T09:27:59.321Z,4504.00
2018-07-04T09:28:59.325Z,4572.00
2018-07-04T09:29:59.345Z,4648.00
2018-07-04T09:30:59.335Z,4624.00
2018-07-04T09:31:59.353Z,4640.00
2018-07-04T09:32:59.355Z,4576.00
2018-07-04T09:33:59.370Z,4576.00
2018-07-04T09:34:59.377Z,4532.00
2018-07-04T09:35:59.391Z,4364.00
2018-07-04T09:36:59.405Z,4520.00
2018-07-04T09:38:01.199Z,4708.00
2018-07-04T09:38:59.471Z,4700.00
2018-07-04T09:39:59.465Z,4740.00
2018-07-04T09:40:59.448Z,4748.00
2018-07-04T09:41:59.458Z,4808.00
2018-07-04T09:42:59.469Z,4856.00
2018-07-04T09:43:59.484Z,4904.00
2018-07-04T09:44:59.493Z,4896.00
2018-07-04T09:45:59.544Z,4912.00
2018-07-04T09:46:59.524Z,4932.00
2018-07-04T09:47:59.530Z,4964.00
2018-07-04T09:48:59.532Z,4996.00
2018-07-04T09:49:59.551Z,4880.00
2018-07-04T09:50:59.555Z,4968.00
2018-07-04T09:51:59.638Z,5072.00
2018-07-04T09:52:59.593Z,5028.00
2018-07-04T09:53:59.627Z,5028.00
2018-07-04T09:54:59.631Z,5028.00
2018-07-04T09:55:59.635Z,5056.00
2018-07-04T09:56:59.667Z,4960.00
2018-07-04T09:57:59.636Z,4824.00
2018-07-04T09:58:59.642Z,4740.00
2018-07-04T09:59:59.655Z,4868.00
2018-07-04T10:00:59.669Z,4880.00
2018-07-04T10:01:59.679Z,4848.00
2018-07-04T10:02:59.720Z,4636.00
2018-07-04T10:03:59.722Z,4204.00
2018-07-04T10:04:59.742Z,4404.00
2018-07-04T10:05:59.732Z,4308.00
2018-07-04T10:06:59.767Z,4404.00
2018-07-04T10:07:59.786Z,4672.00
2018-07-04T10:08:59.761Z,4572.00
2018-07-04T10:09:59.763Z,4296.00
2018-07-04T10:10:59.779Z,4276.00
2018-07-04T10:11:59.786Z,4600.00
2018-07-04T10:12:59.796Z,4896.00
2018-07-04T10:13:59.814Z,4524.00
2018-07-04T10:14:59.814Z,4508.00
2018-07-04T10:15:59.826Z,4488.00
2018-07-04T10:16:59.839Z,4424.00
2018-07-04T10:17:59.882Z,4712.00
2018-07-04T10:18:59.860Z,4908.00
2018-07-04T10:19:59.886Z,4900.00
2018-07-04T10:20:59.883Z,4872.00
2018-07-04T10:21:59.904Z,4816.00
2018-07-04T10:22:59.895Z,4740.00
2018-07-04T10:23:59.908Z,4440.00
2018-07-04T10:24:59.922Z,4180.00
2018-07-04T10:25:59.930Z,4052.00
2018-07-04T10:26:59.938Z,4204.00
2018-07-04T10:27:59.950Z,4716.00
2018-07-04T10:28:59.978Z,4224.00
2018-07-04T10:29:59.978Z,4376.00
2018-07-04T10:30:59.986Z,4400.00
2018-07-04T10:31:59.989Z,4404.00
2018-07-04T10:33:00.002Z,4352.00
2018-07-04T10:34:00.013Z,4156.00
2018-07-04T10:35:00.026Z,4316.00
2018-07-04T10:36:00.033Z,4848.00
2018-07-04T10:37:00.044Z,4972.00
2018-07-04T10:38:00.054Z,5032.00
2018-07-04T10:39:00.059Z,5072.00
2018-07-04T10:40:00.072Z,5064.00
2018-07-04T10:41:00.084Z,5072.00
2018-07-04T10:42:00.101Z,5020.00
2018-07-04T10:43:00.101Z,4980.00
2018-07-04T10:44:00.108Z,4544.00
2018-07-04T10:45:00.153Z,4452.00
2018-07-04T10:46:00.132Z,4520.00
2018-07-04T10:47:00.141Z,4772.00
2018-07-04T10:48:00.153Z,4432.00
2018-07-04T10:49:00.165Z,4248.00
2018-07-04T10:50:00.175Z,4568.00
2018-07-04T10:51:00.216Z,4276.00
2018-07-04T10:52:00.195Z,4448.00
2018-07-04T10:53:00.222Z,4448.00
2018-07-04T10:54:00.220Z,4112.00
2018-07-04T10:55:00.224Z,3772.00
2018-07-04T10:56:00.240Z,3568.00
2018-07-04T10:57:00.278Z,3436.00
2018-07-04T10:58:00.250Z,3328.00
2018-07-04T10:59:00.287Z,3248.00
2018-07-04T11:00:00.281Z,3244.00
2018-07-04T11:01:00.291Z,3148.00
2018-07-04T11:02:00.292Z,3024.00
2018-07-04T11:03:00.307Z,2932.00
2018-07-04T11:04:00.315Z,2820.00
2018-07-04T11:05:00.324Z,2712.00
2018-07-04T11:06:00.339Z,2620.00
2018-07-04T11:07:00.340Z,2544.00
2018-07-04T11:08:00.351Z,2472.00
2018-07-04T11:09:00.363Z,2408.00
2018-07-04T11:10:00.406Z,2352.00
2018-07-04T11:11:00.381Z,2292.00
2018-07-04T11:12:00.426Z,2236.00
2018-07-04T11:13:00.401Z,2192.00
2018-07-04T11:14:00.537Z,2148.00
2018-07-04T11:15:00.466Z,2112.00
2018-07-04T11:16:00.428Z,2080.00
2018-07-04T11:17:00.506Z,2072.00
2018-07-04T11:18:00.451Z,2052.00
2018-07-04T11:19:00.456Z,2088.00
2018-07-04T11:20:00.465Z,2148.00
2018-07-04T11:21:00.476Z,2212.00
2018-07-04T11:22:00.514Z,2300.00
2018-07-04T11:23:00.494Z,2332.00
2018-07-04T11:24:00.504Z,2416.00
2018-07-04T11:25:00.508Z,2540.00
2018-07-04T11:26:00.520Z,2660.00
2018-07-04T11:27:00.540Z,2808.00
2018-07-04T11:28:00.537Z,2844.00
2018-07-04T11:29:00.549Z,2932.00
2018-07-04T11:30:00.554Z,3192.00
2018-07-04T11:31:00.568Z,3364.00
2018-07-04T11:32:00.571Z,3392.00
2018-07-04T11:33:00.577Z,3176.00
2018-07-04T11:34:00.589Z,3440.00
2018-07-04T11:35:00.609Z,3356.00
2018-07-04T11:36:00.690Z,3496.00
2018-07-04T11:37:00.620Z,3324.00
2018-07-04T11:38:00.620Z,3284.00
2018-07-04T11:39:00.626Z,3276.00
2018-07-04T11:40:00.644Z,3424.00
2018-07-04T11:41:00.646Z,3412.00
2018-07-04T11:42:00.655Z,3320.00
2018-07-04T11:43:00.666Z,3276.00
2018-07-04T11:44:00.676Z,3232.00
2018-07-04T11:45:00.682Z,3212.00
2018-07-04T11:46:00.689Z,3244.00
2018-07-04T11:47:00.714Z,3260.00
2018-07-04T11:48:00.707Z,3316.00
2018-07-04T11:49:00.722Z,3428.00
2018-07-04T11:50:00.727Z,3552.00
2018-07-04T11:51:00.731Z,3708.00
2018-07-04T11:52:00.742Z,3804.00
2018-07-04T11:53:00.752Z,3976.00
2018-07-04T11:54:00.767Z,3768.00
2018-07-04T11:55:00.801Z,3716.00
2018-07-04T11:56:00.807Z,3692.00
2018-07-04T11:57:00.850Z,3744.00
2018-07-04T11:58:00.798Z,3736.00
2018-07-04T11:59:00.804Z,3684.00
2018-07-04T12:00:00.824Z,3688.00
2018-07-04T12:01:00.824Z,3724.00
2018-07-04T12:02:00.837Z,3748.00
2018-07-04T12:03:00.846Z,3748.00
2018-07-04T12:04:00.853Z,3732.00
2018-07-04T12:05:00.864Z,3716.00
2018-07-04T12:06:00.869Z,3692.00
2018-07-04T12:07:00.880Z,3696.00
2018-07-04T12:08:00.888Z,3648.00
2018-07-04T12:09:00.901Z,3716.00
2018-07-04T12:10:00.907Z,3748.00
2018-07-04T12:11:00.942Z,3592.00
2018-07-04T12:12:00.931Z,3444.00
2018-07-04T12:13:00.935Z,3356.00
2018-07-04T12:14:00.945Z,3432.00
2018-07-04T12:15:00.955Z,3456.00
2018-07-04T12:16:02.713Z,3504.00
2018-07-04T12:17:01.005Z,3396.00
2018-07-04T12:18:00.983Z,3284.00
2018-07-04T12:19:00.997Z,3204.00
2018-07-04T12:20:01.002Z,3124.00
2018-07-04T12:21:01.055Z,3028.00
2018-07-04T12:22:01.025Z,2984.00
2018-07-04T12:23:01.032Z,3224.00
2018-07-04T12:24:01.042Z,3544.00
2018-07-04T12:25:01.068Z,3584.00
2018-07-04T12:26:01.060Z,3164.00
2018-07-04T12:27:01.203Z,3100.00